Time;durP1;ratioP1;P1;durP2;ratioP2;P2;SDS_P1;SDS_P2;PMS_P1;PMS_P2;Temp;Humidity;BMP_temperature;BMP_pressure;BME280_temperature;BME280_humidity;BME280_pressure;Samples;Min_cycle;Max_cycle;Signal;HPM_P1;HPM_P2
2023/07/20 00:01:10;;;;;;;6.43;3.30;;;;;;;24.52;52.88;100205.19;5068934;28;20178;-61
2023/07/20 00:03:36;;;;;;;4.90;3.20;;;;;;;24.52;53.32;100208.09;5065258;28;20183;-61
2023/07/20 00:06:01;;;;;;;4.87;3.10;;;;;;;24.51;53.38;100210.16;5068121;28;20199;-61
2023/07/20 00:08:27;;;;;;;5.67;3.20;;;;;;;24.51;53.50;100210.16;5063172;28;20218;-61
2023/07/20 00:10:52;;;;;;;6.20;3.53;;;;;;;24.51;52.95;100203.56;5070139;28;20179;-62
2023/07/20 00:13:19;;;;;;;5.83;3.10;;;;;;;24.51;53.40;100209.34;5070297;28;20175;-61
2023/07/20 00:15:44;;;;;;;3.83;2.77;;;;;;;24.51;53.47;100210.16;5065622;28;20607;-63
2023/07/20 00:18:10;;;;;;;4.80;2.90;;;;;;;24.51;53.33;100209.34;5070002;28;20913;-62
2023/07/20 00:20:35;;;;;;;3.97;3.00;;;;;;;24.51;53.10;100215.94;5070094;28;20575;-61
2023/07/20 00:23:01;;;;;;;4.70;3.27;;;;;;;24.50;53.29;100214.31;5052341;28;20172;-62
2023/07/20 00:25:26;;;;;;;4.60;3.20;;;;;;;24.50;53.45;100208.53;5060658;28;20192;-61
2023/07/20 00:27:51;;;;;;;4.93;2.87;;;;;;;24.50;53.52;100214.31;5060997;28;20603;-61
2023/07/20 00:30:18;;;;;;;5.00;2.87;;;;;;;24.50;53.42;100208.53;5061684;28;20191;-62
2023/07/20 00:32:43;;;;;;;4.73;3.17;;;;;;;24.50;53.50;100211.41;5048985;28;20997;-61
2023/07/20 00:35:09;;;;;;;4.50;3.13;;;;;;;24.50;53.39;100207.69;5052899;28;20414;-61
2023/07/20 00:37:35;;;;;;;5.57;3.57;;;;;;;24.50;53.62;100208.53;5067194;28;20949;-62
2023/07/20 00:40:00;;;;;;;3.73;2.73;;;;;;;24.50;53.67;100210.59;5068046;28;20190;-62
2023/07/20 00:42:26;;;;;;;4.80;2.93;;;;;;;24.50;53.48;100208.53;5058820;28;20195;-61
2023/07/20 00:44:51;;;;;;;4.20;3.10;;;;;;;24.50;53.81;100205.66;5047171;28;20190;-63
2023/07/20 00:47:16;;;;;;;4.20;3.17;;;;;;;24.50;53.79;100201.94;5028655;28;20261;-62
2023/07/20 00:49:42;;;;;;;4.93;3.13;;;;;;;24.50;53.78;100201.94;5046796;28;20161;-61
2023/07/20 00:52:09;;;;;;;3.93;2.70;;;;;;;24.50;53.42;100202.75;5050019;28;20709;-63
2023/07/20 00:54:34;;;;;;;5.70;3.00;;;;;;;24.49;53.64;100198.22;5017070;28;20175;-62
2023/07/20 00:57:00;;;;;;;4.57;2.80;;;;;;;24.50;53.67;100190.38;5044716;28;20919;-61
2023/07/20 00:59:26;;;;;;;5.00;2.70;;;;;;;24.49;54.08;100203.97;5030285;28;20251;-61
2023/07/20 01:01:51;;;;;;;5.07;2.87;;;;;;;24.50;53.94;100201.94;5049073;28;21190;-61
2023/07/20 01:04:17;;;;;;;4.00;2.47;;;;;;;24.50;54.02;100201.94;5060990;28;20628;-61
2023/07/20 01:06:48;;;;;;;4.00;2.53;;;;;;;24.49;53.80;100200.28;5060061;28;20575;-62
2023/07/20 01:09:26;;;;;;;5.00;3.00;;;;;;;24.49;54.13;100206.88;5060548;28;20503;-60
2023/07/20 01:12:10;;;;;;;4.23;2.83;;;;;;;24.49;54.08;100206.06;5047595;28;20455;-61
2023/07/20 01:14:36;;;;;;;5.53;2.80;;;;;;;24.49;54.43;100203.19;5048605;28;20509;-63
2023/07/20 01:17:02;;;;;;;5.70;2.40;;;;;;;24.49;54.04;100201.09;5065794;28;20457;-62
2023/07/20 01:19:28;;;;;;;5.30;3.00;;;;;;;24.49;54.33;100200.28;5051419;28;20187;-61
2023/07/20 01:22:09;;;;;;;3.67;2.80;;;;;;;24.48;54.01;100196.56;5048696;28;21264;-61
2023/07/20 01:25:20;;;;;;;4.40;2.47;;;;;;;24.48;54.02;100199.47;5031956;28;20183;-62
2023/07/20 01:28:00;;;;;;;5.30;3.30;;;;;;;24.49;54.50;100200.28;5019031;28;20478;-61
2023/07/20 01:30:45;;;;;;;7.30;3.30;;;;;;;24.49;54.47;100200.28;5067935;28;20524;-62
2023/07/20 01:33:12;;;;;;;4.67;2.97;;;;;;;24.48;54.08;100196.56;5060461;28;20453;-61
2023/07/20 01:35:38;;;;;;;4.27;2.70;;;;;;;24.48;53.65;100193.69;5046996;28;20421;-62
2023/07/20 01:38:03;;;;;;;6.07;3.07;;;;;;;24.47;54.57;100189.16;5046212;28;20422;-63
2023/07/20 01:40:29;;;;;;;3.93;2.73;;;;;;;24.47;54.21;100192.06;5041032;28;20187;-63
2023/07/20 01:42:54;;;;;;;4.43;2.70;;;;;;;24.47;54.46;100194.94;5045436;28;20187;-63
2023/07/20 01:45:19;;;;;;;3.70;2.57;;;;;;;24.48;54.43;100192.88;5055119;28;20228;-62
2023/07/20 01:47:45;;;;;;;3.60;2.73;;;;;;;24.47;54.50;100197.00;5044506;28;20837;-62
2023/07/20 01:50:10;;;;;;;5.93;2.70;;;;;;;24.47;54.37;100183.38;5048262;28;20237;-62
2023/07/20 01:52:36;;;;;;;4.00;2.77;;;;;;;24.47;54.39;100183.38;5067007;28;20179;-61
2023/07/20 01:55:01;;;;;;;3.80;2.70;;;;;;;24.47;54.52;100188.34;5044597;28;20186;-61
2023/07/20 01:57:27;;;;;;;3.60;2.47;;;;;;;24.47;54.49;100183.38;5068291;28;20183;-62
2023/07/20 01:59:52;;;;;;;6.20;2.90;;;;;;;24.47;54.65;100191.22;5064072;28;20178;-63
2023/07/20 02:02:18;;;;;;;4.80;2.30;;;;;;;24.46;54.58;100190.41;5051642;28;20187;-62
2023/07/20 02:04:43;;;;;;;6.00;3.20;;;;;;;24.47;54.35;100194.94;5047937;28;20195;-61
2023/07/20 02:07:09;;;;;;;5.97;3.10;;;;;;;24.46;54.79;100172.25;5061370;28;20206;-60
2023/07/20 02:09:34;;;;;;;3.87;2.67;;;;;;;24.45;54.56;100183.00;5050111;28;20628;-62
2023/07/20 02:12:00;;;;;;;4.47;2.90;;;;;;;24.45;54.77;100191.66;5063325;28;20603;-61
2023/07/20 02:14:26;;;;;;;3.67;2.70;;;;;;;24.46;54.66;100190.41;5047936;28;20487;-63
2023/07/20 02:16:52;;;;;;;5.90;3.00;;;;;;;24.45;54.79;100191.66;5047971;28;20680;-61
2023/07/20 02:19:18;;;;;;;4.87;2.80;;;;;;;24.45;54.78;100185.91;5050456;28;20200;-64
2023/07/20 02:21:43;;;;;;;3.80;2.63;;;;;;;24.45;54.69;100191.66;5029963;28;20407;-62
2023/07/20 02:24:09;;;;;;;3.90;2.47;;;;;;;24.45;55.08;100194.56;5034087;28;21300;-61
2023/07/20 02:26:34;;;;;;;4.10;2.60;;;;;;;24.44;54.29;100186.31;5067234;28;20218;-62
2023/07/20 02:29:00;;;;;;;4.17;3.07;;;;;;;24.45;54.56;100200.31;5066872;28;20190;-62
2023/07/20 02:31:25;;;;;;;5.20;3.07;;;;;;;24.44;54.29;100192.09;5065356;28;20558;-63
2023/07/20 02:33:51;;;;;;;3.40;2.17;;;;;;;24.44;54.62;100194.97;5054456;28;20179;-61
2023/07/20 02:36:16;;;;;;;4.30;2.80;;;;;;;24.44;54.71;100192.88;5046372;28;20167;-62
2023/07/20 02:38:42;;;;;;;4.57;2.80;;;;;;;24.43;54.62;100190.44;5064726;28;20191;-63
2023/07/20 02:41:07;;;;;;;5.07;2.97;;;;;;;24.43;54.74;100194.13;5049049;28;20179;-63
2023/07/20 02:43:33;;;;;;;3.90;2.63;;;;;;;24.43;54.54;100199.09;5050809;28;20272;-62
2023/07/20 02:45:58;;;;;;;4.80;2.83;;;;;;;24.44;54.63;100197.84;5050037;28;20186;-62
2023/07/20 02:48:24;;;;;;;4.50;2.70;;;;;;;24.43;54.68;100199.09;5051898;28;20273;-62
2023/07/20 02:50:49;;;;;;;5.07;2.47;;;;;;;24.43;54.93;100202.00;5068732;28;20174;-61
2023/07/20 02:53:15;;;;;;;4.30;2.60;;;;;;;24.41;54.42;100205.28;5070414;28;20176;-62
2023/07/20 02:55:40;;;;;;;4.70;3.03;;;;;;;24.42;54.33;100200.31;5070073;28;20167;-62
2023/07/20 02:58:05;;;;;;;3.57;2.33;;;;;;;24.42;54.64;100206.94;5070251;28;20179;-61
2023/07/20 03:00:31;;;;;;;3.87;2.60;;;;;;;24.41;54.81;100205.28;5055090;28;20175;-62
2023/07/20 03:02:56;;;;;;;3.80;2.50;;;;;;;24.42;54.81;100204.03;5050704;28;20229;-61
2023/07/20 03:05:25;;;;;;;4.27;2.80;;;;;;;24.41;54.68;100205.28;5064397;28;20281;-61
2023/07/20 03:07:50;;;;;;;3.60;2.53;;;;;;;24.40;54.58;100206.53;5052956;28;20674;-63
2023/07/20 03:10:16;;;;;;;3.90;2.60;;;;;;;24.41;54.58;100205.28;5063883;28;20472;-62
2023/07/20 03:12:41;;;;;;;4.00;2.67;;;;;;;24.40;54.93;100202.81;5050749;28;20167;-62
2023/07/20 03:15:07;;;;;;;3.37;2.17;;;;;;;24.40;54.49;100203.66;5064650;28;20171;-62
2023/07/20 03:17:33;;;;;;;3.80;2.47;;;;;;;24.40;55.10;100199.94;5069759;28;20222;-61
2023/07/20 03:19:59;;;;;;;5.17;2.90;;;;;;;24.40;54.59;100200.78;5061309;28;20432;-63
2023/07/20 03:22:25;;;;;;;4.23;2.73;;;;;;;24.40;55.04;100203.66;5069212;28;20260;-63
2023/07/20 03:24:52;;;;;;;4.03;2.40;;;;;;;24.39;54.75;100202.00;5031716;28;20438;-63
2023/07/20 03:27:17;;;;;;;8.63;3.03;;;;;;;24.39;54.72;100202.00;5068241;28;20199;-62
2023/07/20 03:29:44;;;;;;;4.73;2.80;;;;;;;24.39;54.81;100195.41;5051016;28;20920;-61
2023/07/20 03:32:09;;;;;;;3.83;2.50;;;;;;;24.39;54.73;100204.09;5068326;28;20541;-63
2023/07/20 03:34:35;;;;;;;4.20;2.97;;;;;;;24.39;54.85;100202.00;5051149;28;20472;-63
2023/07/20 03:37:00;;;;;;;4.23;2.80;;;;;;;24.38;54.90;100206.13;5029829;28;20184;-63
2023/07/20 03:39:26;;;;;;;5.40;2.90;;;;;;;24.38;54.70;100208.22;5057527;28;20199;-63
2023/07/20 03:41:52;;;;;;;3.83;2.80;;;;;;;24.38;54.97;100211.91;5029824;28;20261;-61
2023/07/20 03:44:17;;;;;;;6.00;3.40;;;;;;;24.37;54.82;100216.03;5048031;28;20167;-62
2023/07/20 03:46:43;;;;;;;3.37;2.30;;;;;;;24.37;54.91;100213.16;5048946;28;20203;-63
2023/07/20 03:49:10;;;;;;;4.83;3.13;;;;;;;24.38;54.65;100213.97;5033387;28;20192;-63
2023/07/20 03:51:35;;;;;;;4.20;2.73;;;;;;;24.37;54.85;100221.81;5049701;28;20461;-61
2023/07/20 03:54:01;;;;;;;3.33;2.50;;;;;;;24.36;54.81;100214.41;5060440;28;20468;-62
2023/07/20 03:56:26;;;;;;;5.73;2.87;;;;;;;24.37;54.68;100220.97;5070070;28;20197;-62
2023/07/20 03:58:52;;;;;;;5.20;3.13;;;;;;;24.37;54.86;100221.81;5067509;28;20619;-61
2023/07/20 04:01:17;;;;;;;4.07;2.60;;;;;;;24.36;54.87;100223.06;5064002;28;20186;-61
2023/07/20 04:03:43;;;;;;;4.10;2.80;;;;;;;24.36;54.83;100219.34;5033827;28;20193;-62
2023/07/20 04:06:08;;;;;;;3.77;2.53;;;;;;;24.36;54.86;100230.88;5065310;28;20209;-61
2023/07/20 04:08:35;;;;;;;3.93;2.60;;;;;;;24.36;54.96;100225.94;5069298;28;20206;-61
2023/07/20 04:11:03;;;;;;;4.80;2.73;;;;;;;24.36;54.83;100225.13;5069596;28;20175;-63
2023/07/20 04:13:33;;;;;;;3.90;2.80;;;;;;;24.35;54.97;100224.31;5052380;28;20446;-63
2023/07/20 04:15:58;;;;;;;5.27;2.60;;;;;;;24.35;54.92;100221.44;5049288;28;20478;-61
2023/07/20 04:18:24;;;;;;;5.10;2.47;;;;;;;24.35;54.75;100232.97;5048879;28;20437;-62
2023/07/20 04:20:49;;;;;;;4.23;2.63;;;;;;;24.35;55.05;100235.03;5050313;28;20179;-62
2023/07/20 04:23:15;;;;;;;4.87;2.60;;;;;;;24.35;55.20;100238.75;5051157;28;20184;-61
2023/07/20 04:25:40;;;;;;;3.87;2.90;;;;;;;24.35;54.92;100235.03;5068213;28;20201;-63
2023/07/20 04:28:08;;;;;;;4.50;2.90;;;;;;;24.34;55.04;100231.31;5056458;28;20276;-61
2023/07/20 04:30:36;;;;;;;4.17;2.63;;;;;;;24.33;55.14;100221.00;5067198;28;20725;-61
2023/07/20 04:33:01;;;;;;;5.30;2.17;;;;;;;24.34;55.06;100231.31;5062485;28;20433;-61
2023/07/20 04:35:45;;;;;;;3.13;2.50;;;;;;;24.33;55.20;100234.63;5048076;28;20430;-62
2023/07/20 04:38:11;;;;;;;3.60;2.40;;;;;;;24.33;55.19;100237.53;5048137;28;20555;-63
2023/07/20 04:40:36;;;;;;;3.83;2.60;;;;;;;24.33;55.19;100238.31;5065516;28;20421;-62
2023/07/20 04:43:02;;;;;;;3.63;2.50;;;;;;;24.32;55.07;100241.63;5069148;28;20681;-61
2023/07/20 04:45:28;;;;;;;4.63;3.10;;;;;;;24.33;55.32;100238.31;5069128;28;20183;-62
2023/07/20 04:47:53;;;;;;;4.67;2.60;;;;;;;24.32;55.31;100230.91;5065850;28;20959;-62
2023/07/20 04:50:19;;;;;;;5.10;2.47;;;;;;;24.33;55.26;100225.97;5031223;28;20191;-62
2023/07/20 04:52:46;;;;;;;4.57;2.57;;;;;;;24.32;55.18;100236.69;5031272;28;20579;-61
2023/07/20 04:55:11;;;;;;;3.70;2.63;;;;;;;24.32;54.89;100232.97;5055713;28;20188;-62
2023/07/20 04:57:37;;;;;;;4.40;2.83;;;;;;;24.33;55.03;100231.75;5062348;28;20436;-61
2023/07/20 05:00:03;;;;;;;3.53;2.40;;;;;;;24.31;55.32;100226.41;5068594;28;20213;-62
2023/07/20 05:02:29;;;;;;;5.43;2.60;;;;;;;24.32;54.70;100230.91;5064906;28;20262;-62
2023/07/20 05:04:54;;;;;;;3.57;2.40;;;;;;;24.31;55.10;100240.81;5068847;28;20455;-61
2023/07/20 05:07:20;;;;;;;3.60;2.50;;;;;;;24.31;55.04;100231.31;5030243;28;20203;-63
2023/07/20 05:09:45;;;;;;;4.77;2.47;;;;;;;24.30;54.70;100247.84;5068372;28;20270;-61
2023/07/20 05:12:12;;;;;;;4.13;2.80;;;;;;;24.31;55.09;100246.59;5050181;28;20179;-63
2023/07/20 05:14:38;;;;;;;3.93;2.70;;;;;;;24.31;55.31;100246.59;5067737;28;20148;-62
2023/07/20 05:17:03;;;;;;;3.97;2.47;;;;;;;24.30;55.26;100242.06;5049682;28;21015;-64
2023/07/20 05:19:29;;;;;;;4.37;2.97;;;;;;;24.31;55.16;100240.81;5046693;28;20480;-61
2023/07/20 05:21:54;;;;;;;4.63;3.03;;;;;;;24.31;55.14;100242.88;5044667;28;20183;-62
2023/07/20 05:24:20;;;;;;;6.10;2.70;;;;;;;24.30;55.14;100250.72;5026919;28;20198;-62
2023/07/20 05:26:45;;;;;;;5.73;2.73;;;;;;;24.30;55.16;100239.19;5023547;28;20233;-62
2023/07/20 05:29:11;;;;;;;4.23;2.67;;;;;;;24.30;55.13;100242.06;5045994;28;20171;-63
2023/07/20 05:31:36;;;;;;;4.60;3.10;;;;;;;24.30;55.13;100239.19;5024449;28;20187;-62
2023/07/20 05:34:01;;;;;;;3.77;2.60;;;;;;;24.30;55.19;100241.22;5046202;28;20176;-61
2023/07/20 05:36:27;;;;;;;3.53;2.63;;;;;;;24.29;55.09;100237.53;5031558;28;20222;-62
2023/07/20 05:38:53;;;;;;;3.50;2.63;;;;;;;24.29;55.22;100243.28;5029749;28;20180;-61
2023/07/20 05:41:18;;;;;;;5.53;2.83;;;;;;;24.30;55.04;100244.97;5010196;28;20218;-62
2023/07/20 05:43:44;;;;;;;3.60;2.53;;;;;;;24.29;55.03;100242.47;5037338;28;20182;-61
2023/07/20 05:46:12;;;;;;;6.00;3.33;;;;;;;24.28;55.04;100238.78;5047250;28;20183;-61
2023/07/20 05:48:37;;;;;;;5.40;3.10;;;;;;;24.28;55.26;100244.53;5044347;28;20279;-61
2023/07/20 05:51:03;;;;;;;7.53;3.00;;;;;;;24.27;55.18;100244.94;5046755;28;20426;-62
2023/07/20 05:53:28;;;;;;;7.37;3.87;;;;;;;24.26;55.47;100241.25;5028126;28;20156;-61
2023/07/20 05:55:54;;;;;;;12.03;3.23;;;;;;;24.26;55.32;100244.16;5053398;28;20188;-62
2023/07/20 05:58:29;;;;;;;8.33;3.10;;;;;;;24.26;55.13;100246.19;5045192;28;20176;-70
2023/07/20 06:00:54;;;;;;;8.13;3.70;;;;;;;24.26;55.20;100251.97;5053655;28;20677;-70
2023/07/20 06:03:22;;;;;;;8.03;3.47;;;;;;;24.27;54.84;100247.84;5049719;28;20430;-70
2023/07/20 06:05:47;;;;;;;8.27;3.33;;;;;;;24.26;54.38;100249.09;5033823;28;20233;-62
2023/07/20 06:08:12;;;;;;;11.90;3.80;;;;;;;24.25;54.66;100254.06;5045808;28;20458;-69
2023/07/20 06:10:41;;;;;;;15.50;5.20;;;;;;;24.23;54.76;100244.19;5053784;28;20175;-63
2023/07/20 06:13:06;;;;;;;19.23;5.10;;;;;;;24.23;54.94;100255.72;5046151;28;20575;-63
2023/07/20 06:15:32;;;;;;;14.00;4.03;;;;;;;24.24;54.79;100252.38;5027170;28;20434;-61
2023/07/20 06:17:58;;;;;;;12.17;3.80;;;;;;;24.26;55.00;100249.91;5046359;28;20800;-62
2023/07/20 06:20:23;;;;;;;11.67;4.13;;;;;;;24.27;54.86;100254.44;5065109;28;20624;-62
2023/07/20 06:22:49;;;;;;;15.53;3.80;;;;;;;24.27;55.10;100251.56;5056131;28;20490;-62
2023/07/20 06:25:15;;;;;;;13.20;3.87;;;;;;;24.27;54.93;100256.50;5060396;28;20243;-62
2023/07/20 06:27:40;;;;;;;11.40;4.20;;;;;;;24.25;54.96;100259.00;5068615;28;20588;-61
2023/07/20 06:30:06;;;;;;;10.00;3.30;;;;;;;24.24;55.31;100254.47;5062299;28;20171;-61
2023/07/20 06:32:32;;;;;;;16.37;4.03;;;;;;;24.23;55.49;100255.72;5068215;28;20182;-61
2023/07/20 06:34:57;;;;;;;8.53;4.50;;;;;;;24.23;55.05;100256.53;5065235;28;21251;-61
2023/07/20 06:37:24;;;;;;;17.70;4.00;;;;;;;24.21;54.41;100253.25;5066873;28;20170;-63
2023/07/20 06:39:49;;;;;;;13.77;4.07;;;;;;;24.24;55.12;100255.28;5056562;28;20666;-61
2023/07/20 06:42:14;;;;;;;9.90;4.17;;;;;;;24.34;55.01;100245.72;5031626;28;20464;-61
2023/07/20 06:44:40;;;;;;;11.40;4.70;;;;;;;24.59;57.57;100242.72;5061938;28;20182;-62
2023/07/20 06:47:06;;;;;;;14.37;4.43;;;;;;;24.57;56.96;100243.09;5058010;28;20211;-60
2023/07/20 06:49:31;;;;;;;16.33;5.53;;;;;;;24.49;56.60;100244.38;5061451;28;20201;-62
2023/07/20 06:51:57;;;;;;;10.23;3.43;;;;;;;24.41;55.55;100250.63;5044513;28;20445;-62
2023/07/20 06:54:22;;;;;;;7.37;3.40;;;;;;;24.34;54.81;100254.38;5048858;28;20183;-61
2023/07/20 06:56:48;;;;;;;3.83;2.40;;;;;;;24.31;53.82;100246.59;5053628;28;20178;-61
2023/07/20 06:59:13;;;;;;;7.30;2.90;;;;;;;24.27;53.21;100256.50;5040366;28;20293;-61
2023/07/20 07:01:39;;;;;;;8.00;2.83;;;;;;;24.34;54.34;100245.72;5047502;28;20186;-62
2023/07/20 07:04:05;;;;;;;7.90;3.80;;;;;;;24.49;54.51;100241.50;5061879;28;20194;-60
2023/07/20 07:06:31;;;;;;;8.50;3.53;;;;;;;24.57;53.96;100250.94;5011989;28;20233;-61
2023/07/20 07:08:56;;;;;;;6.70;3.27;;;;;;;24.49;54.86;100246.47;5042241;28;20444;-62
2023/07/20 07:11:23;;;;;;;7.50;2.87;;;;;;;24.40;53.99;100246.13;5049620;28;20414;-60
2023/07/20 07:13:50;;;;;;;8.00;3.10;;;;;;;24.39;53.21;100248.16;5070331;28;20191;-60
2023/07/20 07:16:18;;;;;;;9.30;2.80;;;;;;;24.29;53.01;100242.47;5057679;28;20478;-61
2023/07/20 07:18:47;;;;;;;6.57;2.80;;;;;;;24.31;53.34;100237.94;5062901;28;20434;-61
2023/07/20 07:21:13;;;;;;;6.50;2.67;;;;;;;24.32;53.95;100239.56;5038396;28;20509;-61
2023/07/20 07:23:38;;;;;;;5.13;2.90;;;;;;;24.28;53.11;100246.63;5070533;28;20425;-61
2023/07/20 07:26:04;;;;;;;8.10;3.30;;;;;;;24.27;52.61;100242.06;5065733;28;20194;-60
2023/07/20 07:28:30;;;;;;;5.87;2.93;;;;;;;24.27;52.53;100233.41;5050627;28;20195;-61
2023/07/20 07:30:56;;;;;;;5.50;2.17;;;;;;;24.28;52.69;100233.00;5041556;28;20197;-61
2023/07/20 07:33:22;;;;;;;5.60;2.47;;;;;;;24.26;51.98;100232.59;5070227;28;20577;-62
2023/07/20 07:35:48;;;;;;;9.07;2.63;;;;;;;24.19;51.97;100241.28;5065681;28;20441;-61
2023/07/20 07:38:13;;;;;;;5.90;2.67;;;;;;;24.18;51.95;100245.41;5070205;28;20190;-68
2023/07/20 07:40:38;;;;;;;8.80;3.10;;;;;;;24.17;51.78;100238.00;5067880;28;20248;-68
2023/07/20 07:43:04;;;;;;;9.00;3.20;;;;;;;24.15;51.89;100242.56;5050058;28;20187;-68
2023/07/20 07:45:29;;;;;;;6.83;2.77;;;;;;;24.14;52.35;100235.97;5053342;28;20191;-64
2023/07/20 07:47:55;;;;;;;8.47;3.17;;;;;;;24.13;52.44;100240.09;5058433;28;20214;-68
2023/07/20 07:50:20;;;;;;;14.53;3.70;;;;;;;24.10;52.25;100246.72;5077743;28;20179;-67
2023/07/20 07:52:46;;;;;;;9.17;3.20;;;;;;;24.18;52.62;100241.72;5078356;28;20277;-68
2023/07/20 07:55:12;;;;;;;22.20;4.00;;;;;;;24.13;52.64;100248.75;5062423;28;20217;-68
2023/07/20 07:57:37;;;;;;;11.03;3.43;;;;;;;24.15;52.65;100249.16;5065670;28;20665;-68
2023/07/20 08:00:04;;;;;;;6.50;3.10;;;;;;;24.20;53.44;100248.72;5076280;28;20194;-67
2023/07/20 08:02:29;;;;;;;9.83;2.87;;;;;;;24.16;52.58;100245.03;5057854;28;20194;-60
2023/07/20 08:04:54;;;;;;;6.27;2.73;;;;;;;24.13;53.00;100250.84;5060535;28;20461;-61
2023/07/20 08:07:20;;;;;;;8.20;3.43;;;;;;;24.12;53.15;100247.09;5067950;28;20195;-60
2023/07/20 08:09:45;;;;;;;17.97;3.80;;;;;;;24.14;53.55;100250.38;5066774;28;20191;-61
2023/07/20 08:12:11;;;;;;;6.20;3.03;;;;;;;24.13;53.11;100251.63;5062179;28;20175;-61
2023/07/20 08:14:36;;;;;;;7.90;3.10;;;;;;;24.13;53.24;100242.19;5071414;28;20197;-61
2023/07/20 08:17:02;;;;;;;5.33;2.50;;;;;;;24.12;53.51;100252.88;5051163;28;20227;-60
2023/07/20 08:19:28;;;;;;;7.70;3.10;;;;;;;24.12;53.60;100244.22;5071016;28;20207;-60
2023/07/20 08:21:54;;;;;;;10.30;3.10;;;;;;;24.13;53.62;100245.88;5047906;28;21034;-60
2023/07/20 08:24:19;;;;;;;9.20;3.60;;;;;;;24.20;55.54;100250.78;5070336;28;20171;-60
2023/07/20 08:26:45;;;;;;;8.07;2.90;;;;;;;24.20;54.22;100256.53;5080573;28;20186;-60
2023/07/20 08:29:10;;;;;;;13.50;3.13;;;;;;;24.19;54.52;100247.06;5056188;28;20543;-61
2023/07/20 08:31:36;;;;;;;11.63;2.90;;;;;;;24.19;54.71;100249.94;5068329;28;20859;-61
2023/07/20 08:34:01;;;;;;;8.73;2.63;;;;;;;24.20;54.17;100245.00;5067119;28;20175;-60
2023/07/20 08:36:27;;;;;;;6.97;2.80;;;;;;;24.19;54.63;100255.72;5066657;28;20191;-62
2023/07/20 08:38:52;;;;;;;10.47;3.00;;;;;;;24.19;54.39;100247.06;5069253;28;20171;-61
2023/07/20 08:41:18;;;;;;;15.83;3.17;;;;;;;24.19;54.53;100243.38;5066740;28;20183;-60
2023/07/20 08:43:43;;;;;;;11.47;2.83;;;;;;;24.18;54.67;100254.06;5068497;28;20646;-60
2023/07/20 08:46:10;;;;;;;10.53;3.00;;;;;;;24.18;54.62;100239.66;5046813;28;20688;-60
2023/07/20 08:48:36;;;;;;;8.27;2.87;;;;;;;24.20;54.95;100250.78;5050639;28;20237;-61
2023/07/20 08:51:01;;;;;;;7.30;2.60;;;;;;;24.19;54.45;100241.28;5068546;28;20414;-60
2023/07/20 08:53:27;;;;;;;5.80;2.67;;;;;;;24.18;54.14;100239.66;5051302;28;20241;-60
2023/07/20 08:55:53;;;;;;;9.40;3.27;;;;;;;24.18;54.46;100236.75;5051642;28;20187;-60
2023/07/20 08:58:18;;;;;;;4.10;2.10;;;;;;;24.18;54.60;100242.53;5061884;28;20431;-60
2023/07/20 09:00:44;;;;;;;8.77;3.30;;;;;;;24.17;54.73;100240.91;5048959;28;20171;-60
2023/07/20 09:03:10;;;;;;;5.37;2.23;;;;;;;24.17;54.51;100240.91;5048635;28;20178;-59
2023/07/20 09:05:36;;;;;;;5.50;3.13;;;;;;;24.18;54.69;100241.72;5051317;28;20222;-60
2023/07/20 09:08:05;;;;;;;7.40;3.07;;;;;;;24.18;54.25;100245.41;5048699;28;20465;-60
2023/07/20 09:10:30;;;;;;;5.57;2.80;;;;;;;24.16;54.47;100236.38;5047986;28;20183;-62
2023/07/20 09:12:55;;;;;;;6.67;3.10;;;;;;;24.16;54.61;100233.50;5046636;28;20425;-61
2023/07/20 09:15:22;;;;;;;4.60;2.93;;;;;;;24.16;54.71;100235.53;5054114;28;20182;-61
2023/07/20 09:17:48;;;;;;;4.03;2.40;;;;;;;24.16;54.49;100239.25;5048618;28;20250;-62
2023/07/20 09:20:14;;;;;;;7.60;3.50;;;;;;;24.17;54.40;100234.28;5065674;28;20418;-60
2023/07/20 09:22:39;;;;;;;6.47;3.20;;;;;;;24.16;54.69;100233.50;5046241;28;20542;-61
2023/07/20 09:25:19;;;;;;;6.77;2.90;;;;;;;24.16;54.33;100235.53;5032402;28;20536;-60
2023/07/20 09:27:46;;;;;;;6.83;2.13;;;;;;;24.17;54.49;100234.28;5065212;28;20202;-61
2023/07/20 09:30:13;;;;;;;5.97;2.67;;;;;;;24.16;54.30;100232.66;5032831;28;20487;-60
2023/07/20 09:32:41;;;;;;;8.20;2.77;;;;;;;24.17;54.49;100220.69;5065555;28;20940;-60
2023/07/20 09:35:07;;;;;;;4.90;2.40;;;;;;;24.18;54.53;100228.13;5060651;28;20456;-60
2023/07/20 09:37:33;;;;;;;3.87;2.20;;;;;;;24.17;54.29;100223.59;5042181;28;20500;-61
2023/07/20 09:39:58;;;;;;;5.50;2.80;;;;;;;24.18;54.47;100224.41;5064747;28;21228;-59
2023/07/20 09:42:25;;;;;;;3.57;1.87;;;;;;;24.17;54.27;100211.22;5061413;28;20436;-61
2023/07/20 09:44:50;;;;;;;6.37;2.40;;;;;;;24.17;54.32;100202.56;5067808;28;20220;-60
2023/07/20 09:47:21;;;;;;;7.37;3.10;;;;;;;24.16;54.23;100207.53;5066836;28;20462;-60
2023/07/20 09:49:47;;;;;;;8.23;2.83;;;;;;;24.16;54.23;100203.81;5042892;28;20195;-68
2023/07/20 09:52:12;;;;;;;4.90;2.93;;;;;;;24.17;53.88;100209.16;5046693;28;20445;-67
2023/07/20 09:54:41;;;;;;;6.90;3.47;;;;;;;24.19;53.49;100200.91;5044450;28;20179;-66
2023/07/20 09:57:10;;;;;;;3.87;2.23;;;;;;;24.20;53.20;100204.63;5039606;28;20274;-68
2023/07/20 09:59:35;;;;;;;4.23;2.70;;;;;;;24.18;53.63;100192.69;5054335;28;20426;-68
2023/07/20 10:02:01;;;;;;;4.57;2.80;;;;;;;24.16;53.71;100193.09;5035531;28;20442;-68
2023/07/20 10:04:27;;;;;;;3.83;2.57;;;;;;;24.17;53.94;100194.75;5046842;28;20288;-68
2023/07/20 10:06:52;;;;;;;6.97;2.53;;;;;;;24.17;53.71;100191.84;5027488;28;20191;-61
2023/07/20 10:09:18;;;;;;;5.87;2.60;;;;;;;24.18;53.60;100186.91;5026227;28;20191;-61
2023/07/20 10:11:48;;;;;;;5.60;2.57;;;;;;;24.17;53.68;100186.09;5042911;28;20175;-60
2023/07/20 10:14:13;;;;;;;4.33;2.40;;;;;;;24.17;53.69;100180.31;5016202;28;20195;-61
2023/07/20 10:16:42;;;;;;;5.63;2.27;;;;;;;24.17;53.25;100183.19;5043482;28;20473;-61
2023/07/20 10:19:11;;;;;;;4.17;2.20;;;;;;;24.18;53.48;100181.16;5061396;28;20193;-61
2023/07/20 10:21:40;;;;;;;9.67;2.87;;;;;;;24.19;53.37;100189.34;5045647;28;20480;-60
2023/07/20 10:24:07;;;;;;;4.40;2.50;;;;;;;24.19;52.98;100179.91;5025059;28;20442;-61
2023/07/20 10:26:32;;;;;;;3.80;2.20;;;;;;;24.19;52.59;100177.81;5018773;28;21057;-61
2023/07/20 10:28:58;;;;;;;4.23;2.50;;;;;;;24.19;53.11;100180.69;5044986;28;20472;-60
2023/07/20 10:31:23;;;;;;;3.53;2.17;;;;;;;24.19;52.49;100171.25;5047858;28;20186;-60
2023/07/20 10:33:50;;;;;;;4.33;2.30;;;;;;;24.18;53.02;100176.19;5052494;28;20198;-68
2023/07/20 10:36:15;;;;;;;3.60;2.30;;;;;;;24.19;53.14;100174.94;5030577;28;20187;-69
2023/07/20 10:38:47;;;;;;;4.77;2.43;;;;;;;24.19;53.18;100165.47;5041742;28;20424;-67
2023/07/20 10:41:20;;;;;;;4.07;1.93;;;;;;;24.18;52.95;100164.63;5059458;28;20175;-68
2023/07/20 10:43:46;;;;;;;4.70;2.30;;;;;;;24.20;52.50;100158.44;5051296;28;20434;-67
2023/07/20 10:46:14;;;;;;;3.40;2.07;;;;;;;24.21;52.63;100168.75;5054243;28;20436;-66
2023/07/20 10:48:59;;;;;;;3.40;2.30;;;;;;;24.18;52.34;100161.75;5051904;28;20445;-62
2023/07/20 10:51:24;;;;;;;3.17;2.30;;;;;;;24.20;51.76;100165.06;5044303;28;20437;-60
2023/07/20 10:53:50;;;;;;;4.50;2.40;;;;;;;24.21;51.89;100160.09;5055937;28;20433;-60
2023/07/20 10:56:19;;;;;;;3.30;2.00;;;;;;;24.20;51.68;100158.44;5020241;28;20192;-61
2023/07/20 10:58:45;;;;;;;4.80;2.00;;;;;;;24.21;50.86;100160.91;5042927;28;20237;-60
2023/07/20 11:01:13;;;;;;;3.93;2.20;;;;;;;24.21;51.15;100155.16;5057751;28;20433;-62
2023/07/20 11:03:42;;;;;;;3.30;2.10;;;;;;;24.21;50.99;100148.53;5063532;28;20755;-61
2023/07/20 11:06:25;;;;;;;5.03;1.93;;;;;;;24.19;50.96;100146.06;5058398;28;20453;-60
2023/07/20 11:09:15;;;;;;;7.27;2.17;;;;;;;24.20;50.17;100132.50;5052932;28;20550;-60
2023/07/20 11:11:47;;;;;;;4.50;2.30;;;;;;;24.21;49.20;100131.22;5061169;28;20431;-60
2023/07/20 11:14:25;;;;;;;4.40;2.40;;;;;;;24.21;49.45;100131.22;5063814;28;20430;-60
2023/07/20 11:16:51;;;;;;;3.03;1.90;;;;;;;24.22;49.03;100129.97;5051335;28;20465;-60
2023/07/20 11:19:17;;;;;;;3.33;1.57;;;;;;;24.22;48.10;100136.59;5047546;28;20430;-60
2023/07/20 11:21:44;;;;;;;4.37;1.93;;;;;;;24.22;47.75;100133.69;5052080;28;20290;-60